X  Sluiten METAR luchtvaart weer gegevens      EHAM Amsterdam Airport Schiphol
Temperatuur
5°C Temperatuur
4°C Dauwpunt
93% Vochtigheid



Wind
13 KM/U
8 MPH
4 M/S
7 KTS



180°
Zuid
Huidig weer

Mist Mist
Luchtdruk 1037.91 (hPa) - 30.65 (inHg)
Zicht 0.2 (mijl) - 0.3 (km)
Vliegveld
Vliegveld code EHAM

Locatie : Amsterdam Airport Schiphol
Afstand: 26 (km)

Metar:
EHAM 181225Z 18007KT 150V210 0250 R18C/0450N R27/0450N R18R/0375N R06/0400N FG VV001 05/04 Q1038 BECMG 0500 BKN001

Tijd: 18-01-2022 13:25 CET